createdAt,value
2023-04-23T00:00:19.297Z,100.00
2023-04-23T00:02:54.453Z,100.00
2023-04-23T00:05:27.388Z,100.00
2023-04-23T00:07:56.121Z,100.00
2023-04-23T00:10:25.412Z,100.00
2023-04-23T00:12:54.782Z,100.00
2023-04-23T00:15:23.720Z,100.00
2023-04-23T00:17:52.207Z,100.00
2023-04-23T00:20:20.816Z,100.00
2023-04-23T00:22:51.260Z,100.00
2023-04-23T00:25:19.759Z,100.00
2023-04-23T00:27:48.837Z,100.00
2023-04-23T00:30:18.875Z,100.00
2023-04-23T00:32:47.697Z,100.00
2023-04-23T00:35:16.065Z,100.00
2023-04-23T00:37:45.329Z,100.00
2023-04-23T00:40:15.744Z,100.00
2023-04-23T00:42:45.704Z,100.00
2023-04-23T00:45:14.207Z,100.00
2023-04-23T00:47:42.704Z,100.00
2023-04-23T00:50:13.159Z,100.00
2023-04-23T00:52:41.651Z,100.00
2023-04-23T00:55:10.644Z,100.00
2023-04-23T00:57:40.942Z,100.00
2023-04-23T01:00:13.950Z,100.00
2023-04-23T01:02:44.646Z,100.00
2023-04-23T01:05:15.669Z,100.00
2023-04-23T01:07:45.808Z,100.00
2023-04-23T01:10:14.794Z,100.00
2023-04-23T01:12:45.066Z,100.00
2023-04-23T01:15:13.691Z,100.00
2023-04-23T01:17:43.211Z,100.00
2023-04-23T01:20:12.674Z,100.00
2023-04-23T01:22:42.416Z,100.00
2023-04-23T01:25:11.686Z,100.00
2023-04-23T01:27:40.514Z,100.00
2023-04-23T01:30:10.958Z,100.00
2023-04-23T01:32:40.666Z,100.00
2023-04-23T01:35:13.202Z,100.00
2023-04-23T01:37:44.776Z,100.00
2023-04-23T01:40:13.604Z,100.00
2023-04-23T01:42:42.471Z,100.00
2023-04-23T01:45:12.083Z,100.00
2023-04-23T01:47:42.458Z,100.00
2023-04-23T01:50:11.812Z,100.00
2023-04-23T01:52:40.479Z,100.00
2023-04-23T01:55:10.498Z,100.00
2023-04-23T01:57:39.089Z,100.00
2023-04-23T02:00:11.421Z,100.00
2023-04-23T02:02:44.933Z,100.00
2023-04-23T02:05:16.478Z,100.00
2023-04-23T02:07:45.819Z,100.00
2023-04-23T02:10:16.219Z,100.00
2023-04-23T02:12:46.907Z,100.00
2023-04-23T02:15:16.645Z,100.00
2023-04-23T02:17:45.084Z,100.00
2023-04-23T02:20:13.993Z,99.77
2023-04-23T02:22:44.049Z,99.77
2023-04-23T02:25:15.724Z,99.05
2023-04-23T02:27:45.666Z,98.25
2023-04-23T02:30:14.859Z,97.59
2023-04-23T02:32:44.161Z,96.90
2023-04-23T02:35:13.375Z,96.88
2023-04-23T02:37:42.292Z,96.55
2023-04-23T02:40:12.204Z,96.46
2023-04-23T02:42:42.566Z,96.13
2023-04-23T02:45:14.061Z,95.65
2023-04-23T02:47:42.488Z,95.63
2023-04-23T02:50:11.455Z,95.36
2023-04-23T02:52:39.847Z,95.35
2023-04-23T02:55:10.751Z,95.46
2023-04-23T02:57:39.615Z,95.32
2023-04-23T03:00:12.295Z,96.03
2023-04-23T03:02:44.900Z,95.56
2023-04-23T03:05:13.752Z,95.34
2023-04-23T03:07:42.870Z,95.04
2023-04-23T03:10:11.984Z,95.17
2023-04-23T03:12:40.336Z,94.79
2023-04-23T03:15:10.298Z,95.06
2023-04-23T03:17:39.475Z,95.26
2023-04-23T03:20:11.790Z,95.09
2023-04-23T03:22:41.194Z,95.38
2023-04-23T03:25:11.144Z,95.42
2023-04-23T03:27:40.982Z,95.01
2023-04-23T03:30:11.295Z,94.91
2023-04-23T03:32:40.085Z,94.67
2023-04-23T03:35:11.069Z,94.90
2023-04-23T03:37:43.053Z,94.76
2023-04-23T03:40:12.183Z,94.42
2023-04-23T03:42:42.734Z,94.28
2023-04-23T03:45:14.548Z,93.75
2023-04-23T03:47:43.084Z,93.85
2023-04-23T03:50:14.158Z,93.46
2023-04-23T03:52:45.001Z,93.33
2023-04-23T03:55:21.139Z,93.59
2023-04-23T03:57:50.493Z,93.27
2023-04-23T04:00:25.052Z,92.94
2023-04-23T04:02:53.757Z,93.20
2023-04-23T04:05:25.638Z,93.04
2023-04-23T04:07:55.928Z,93.22
2023-04-23T04:10:26.113Z,93.14
2023-04-23T04:12:55.330Z,93.31
2023-04-23T04:15:23.947Z,94.05
2023-04-23T04:17:52.305Z,94.19
2023-04-23T04:20:20.704Z,94.09
2023-04-23T04:22:50.426Z,93.97
2023-04-23T04:25:18.925Z,94.32
2023-04-23T04:27:48.018Z,94.26
2023-04-23T04:30:16.832Z,94.27
2023-04-23T04:32:46.266Z,94.42
2023-04-23T04:35:14.841Z,94.95
2023-04-23T04:37:43.829Z,95.59
2023-04-23T04:40:15.195Z,95.95
2023-04-23T04:42:43.669Z,96.28
2023-04-23T04:45:12.791Z,96.31
2023-04-23T04:47:41.893Z,96.47
2023-04-23T04:50:11.624Z,96.77
2023-04-23T04:52:39.995Z,96.82
2023-04-23T04:55:09.332Z,96.86
2023-04-23T04:57:39.049Z,97.10
2023-04-23T05:00:23.665Z,97.36
2023-04-23T05:02:52.551Z,97.75
2023-04-23T05:05:22.669Z,98.50
2023-04-23T05:07:51.105Z,98.90
2023-04-23T05:10:19.643Z,99.42
2023-04-23T05:12:51.698Z,100.00
2023-04-23T05:15:20.033Z,99.84
2023-04-23T05:17:50.291Z,99.75
2023-04-23T05:20:18.748Z,99.86
2023-04-23T05:22:47.098Z,100.00
2023-04-23T05:25:15.637Z,100.00
2023-04-23T05:27:44.026Z,99.92
2023-04-23T05:30:14.241Z,99.90
2023-04-23T05:32:42.588Z,100.00
2023-04-23T05:35:11.229Z,100.00
2023-04-23T05:37:39.796Z,100.00
2023-04-23T05:40:09.731Z,100.00
2023-04-23T05:42:38.529Z,99.76
2023-04-23T05:45:09.157Z,99.20
2023-04-23T05:47:39.320Z,98.68
2023-04-23T05:50:11.231Z,98.43
2023-04-23T05:52:39.723Z,97.65
2023-04-23T05:55:09.582Z,97.23
2023-04-23T05:57:39.322Z,96.23
2023-04-23T06:00:11.789Z,95.16
2023-04-23T06:02:44.600Z,92.89
2023-04-23T06:05:13.494Z,91.62
2023-04-23T06:07:42.293Z,90.95
2023-04-23T06:10:12.571Z,89.20
2023-04-23T06:12:42.137Z,88.34
2023-04-23T06:15:11.691Z,88.18
2023-04-23T06:17:40.685Z,87.20
2023-04-23T06:20:12.002Z,86.98
2023-04-23T06:22:40.550Z,86.78
2023-04-23T06:25:10.372Z,85.46
2023-04-23T06:27:38.821Z,84.95
2023-04-23T06:30:14.981Z,84.81
2023-04-23T06:32:43.439Z,84.59
2023-04-23T06:35:13.222Z,84.01
2023-04-23T06:37:41.517Z,83.53
2023-04-23T06:40:11.162Z,83.02
2023-04-23T06:42:39.544Z,83.02
2023-04-23T06:45:19.895Z,82.48
2023-04-23T06:47:49.362Z,82.44
2023-04-23T06:50:19.166Z,82.10
2023-04-23T06:52:47.491Z,82.24
2023-04-23T06:55:15.853Z,81.83
2023-04-23T06:57:44.214Z,81.78
2023-04-23T07:00:14.214Z,80.94
2023-04-23T07:02:44.620Z,79.97
2023-04-23T07:05:13.233Z,80.49
2023-04-23T07:07:43.518Z,80.87
2023-04-23T07:10:16.218Z,80.79
2023-04-23T07:12:46.179Z,81.04
2023-04-23T07:15:14.646Z,80.61
2023-04-23T07:17:43.063Z,80.32
2023-04-23T07:20:12.129Z,80.51
2023-04-23T07:22:43.006Z,81.01
2023-04-23T07:25:12.845Z,80.09
2023-04-23T07:27:41.218Z,80.92
2023-04-23T07:30:11.151Z,79.97
2023-04-23T07:32:40.757Z,80.05
2023-04-23T07:35:11.535Z,80.15
2023-04-23T07:37:40.402Z,79.48
2023-04-23T07:40:11.644Z,79.13
2023-04-23T07:42:40.457Z,80.20
2023-04-23T07:45:11.455Z,80.92
2023-04-23T07:47:39.822Z,80.77
2023-04-23T07:50:10.483Z,80.76
2023-04-23T07:52:38.991Z,80.42
2023-04-23T07:55:10.260Z,80.18
2023-04-23T07:57:38.930Z,80.24
2023-04-23T08:00:09.517Z,79.89
2023-04-23T08:02:41.699Z,79.72
2023-04-23T08:05:11.111Z,78.39
2023-04-23T08:07:39.727Z,77.82
2023-04-23T08:10:10.822Z,77.88
2023-04-23T08:12:39.581Z,77.19
2023-04-23T08:15:09.263Z,77.90
2023-04-23T08:17:41.707Z,76.82
2023-04-23T08:20:11.015Z,76.91
2023-04-23T08:22:39.395Z,77.08
2023-04-23T08:25:10.763Z,76.52
2023-04-23T08:27:39.151Z,76.03
2023-04-23T08:30:09.563Z,74.78
2023-04-23T08:32:39.778Z,75.38
2023-04-23T08:35:09.426Z,75.81
2023-04-23T08:37:39.046Z,76.10
2023-04-23T08:40:11.058Z,75.22
2023-04-23T08:42:44.860Z,73.63
2023-04-23T08:45:14.536Z,73.48
2023-04-23T08:47:44.464Z,74.42
2023-04-23T08:50:14.576Z,72.92
2023-04-23T08:52:48.533Z,72.57
2023-04-23T08:55:18.993Z,71.88
2023-04-23T08:57:48.313Z,72.94
2023-04-23T09:00:18.866Z,72.60
2023-04-23T09:02:48.463Z,71.97
2023-04-23T09:05:17.579Z,72.80
2023-04-23T09:07:46.373Z,73.30
2023-04-23T09:10:18.500Z,71.97
2023-04-23T09:12:48.273Z,73.22
2023-04-23T09:15:18.236Z,72.68
2023-04-23T09:17:48.234Z,72.92
2023-04-23T09:20:17.674Z,72.56
2023-04-23T09:22:48.127Z,72.29
2023-04-23T09:25:20.334Z,72.45
2023-04-23T09:27:50.325Z,71.82
2023-04-23T09:30:19.970Z,72.59
2023-04-23T09:32:49.685Z,71.70
2023-04-23T09:35:20.812Z,71.90
2023-04-23T09:37:53.325Z,72.10
2023-04-23T09:40:25.524Z,72.33
2023-04-23T09:42:55.105Z,72.48
2023-04-23T09:45:25.213Z,73.02
2023-04-23T09:47:56.002Z,71.92
2023-04-23T09:50:34.812Z,72.20
2023-04-23T09:53:03.296Z,71.40
2023-04-23T09:55:38.460Z,71.38
2023-04-23T09:58:08.867Z,71.00
2023-04-23T10:00:38.897Z,72.30
2023-04-23T10:03:08.978Z,72.33
2023-04-23T10:08:14.601Z,72.17
2023-04-23T10:10:57.520Z,71.06
2023-04-23T10:13:34.813Z,71.19
2023-04-23T10:16:20.690Z,71.94
2023-04-23T10:18:55.279Z,70.15
2023-04-23T10:21:34.050Z,69.87
2023-04-23T10:24:11.777Z,70.23
2023-04-23T10:26:44.220Z,71.39
2023-04-23T10:29:18.923Z,71.10
2023-04-23T10:31:48.541Z,70.75
2023-04-23T10:34:17.488Z,69.19
2023-04-23T10:36:45.944Z,69.81
2023-04-23T10:39:24.094Z,69.00
2023-04-23T10:42:01.302Z,69.46
2023-04-23T10:47:15.969Z,70.20
2023-04-23T10:49:45.816Z,68.23
2023-04-23T10:52:21.153Z,69.52
2023-04-23T10:54:59.895Z,67.93
2023-04-23T10:57:30.284Z,69.52
2023-04-23T10:59:59.538Z,69.68
2023-04-23T11:02:28.426Z,70.35
2023-04-23T11:04:59.028Z,70.58
2023-04-23T11:07:32.319Z,71.29
2023-04-23T11:10:01.597Z,71.07
2023-04-23T11:12:34.893Z,70.83
2023-04-23T11:15:12.812Z,70.40
2023-04-23T11:18:12.982Z,70.81
2023-04-23T11:20:42.217Z,71.52
2023-04-23T11:23:33.007Z,71.08
2023-04-23T11:26:02.435Z,69.20
2023-04-23T11:28:35.092Z,68.89
2023-04-23T11:31:04.227Z,69.17
2023-04-23T11:33:32.990Z,69.13
2023-04-23T11:36:03.900Z,68.29
2023-04-23T11:38:34.109Z,68.37
2023-04-23T11:41:05.322Z,68.35
2023-04-23T11:43:35.612Z,67.31
2023-04-23T11:46:04.176Z,68.75
2023-04-23T11:48:32.697Z,66.36
2023-04-23T11:51:01.191Z,65.57
2023-04-23T11:53:29.501Z,65.96
2023-04-23T11:55:57.976Z,65.36
2023-04-23T11:58:26.401Z,65.38
2023-04-23T12:01:00.695Z,67.05
2023-04-23T12:03:30.137Z,65.44
2023-04-23T12:06:00.034Z,65.93
2023-04-23T12:08:36.046Z,65.56
2023-04-23T12:11:06.753Z,64.25
2023-04-23T12:13:34.948Z,66.21
2023-04-23T12:16:06.363Z,66.91
2023-04-23T12:18:38.077Z,65.50
2023-04-23T12:21:07.306Z,64.95
2023-04-23T12:23:36.741Z,64.93
2023-04-23T12:26:06.136Z,65.29
2023-04-23T12:28:34.489Z,66.41
2023-04-23T12:31:05.226Z,67.28
2023-04-23T12:33:33.723Z,68.34
2023-04-23T12:36:02.114Z,69.59
2023-04-23T12:38:31.566Z,72.48
2023-04-23T12:41:01.918Z,76.02
2023-04-23T12:43:30.618Z,76.51
2023-04-23T12:45:58.926Z,78.83
2023-04-23T12:48:29.375Z,80.10
2023-04-23T12:50:57.937Z,79.84
2023-04-23T12:53:26.584Z,80.84
2023-04-23T12:55:55.360Z,82.01
2023-04-23T12:58:23.964Z,82.86
2023-04-23T13:00:52.380Z,82.73
2023-04-23T13:03:20.903Z,82.52
2023-04-23T13:05:51.282Z,82.60
2023-04-23T13:08:20.166Z,82.44
2023-04-23T13:10:50.037Z,82.83
2023-04-23T13:13:18.470Z,82.98
2023-04-23T13:15:47.169Z,82.69
2023-04-23T13:18:15.705Z,81.57
2023-04-23T13:20:44.210Z,80.51
2023-04-23T13:23:13.969Z,80.43
2023-04-23T13:25:42.498Z,80.13
2023-04-23T13:28:10.780Z,78.81
2023-04-23T13:30:39.208Z,78.76
2023-04-23T13:33:07.558Z,77.85
2023-04-23T13:35:37.786Z,78.22
2023-04-23T13:38:06.280Z,78.91
2023-04-23T13:40:36.545Z,78.87
2023-04-23T13:43:05.125Z,79.78
2023-04-23T13:45:33.566Z,80.31
2023-04-23T13:48:02.558Z,80.84
2023-04-23T13:50:30.976Z,80.54
2023-04-23T13:52:59.440Z,80.30
2023-04-23T13:55:28.263Z,81.43
2023-04-23T13:57:58.855Z,81.38
2023-04-23T14:00:29.384Z,81.06
2023-04-23T14:02:58.327Z,80.85
2023-04-23T14:05:26.936Z,80.79
2023-04-23T14:07:55.369Z,80.92
2023-04-23T14:10:24.223Z,81.52
2023-04-23T14:12:53.217Z,81.01
2023-04-23T14:15:23.382Z,79.25
2023-04-23T14:17:51.841Z,79.46
2023-04-23T14:20:20.792Z,80.40
2023-04-23T14:22:51.845Z,78.54
2023-04-23T14:25:27.530Z,79.36
2023-04-23T14:27:58.450Z,80.18
2023-04-23T14:30:29.684Z,80.79
2023-04-23T14:32:58.215Z,81.55
2023-04-23T14:35:39.490Z,82.79
2023-04-23T14:38:12.708Z,83.74
2023-04-23T14:40:41.158Z,84.13
2023-04-23T14:43:15.397Z,84.62
2023-04-23T14:45:47.013Z,85.91
2023-04-23T14:48:15.470Z,86.15
2023-04-23T14:50:43.914Z,86.78
2023-04-23T14:53:12.338Z,87.45
2023-04-23T14:55:43.233Z,87.81
2023-04-23T14:58:11.834Z,90.66
2023-04-23T15:00:42.507Z,92.51
2023-04-23T15:03:12.504Z,93.37
2023-04-23T15:05:42.014Z,94.98
2023-04-23T15:08:13.939Z,93.92
2023-04-23T15:10:47.276Z,94.86
2023-04-23T15:13:50.874Z,94.61
2023-04-23T15:16:47.490Z,94.89
2023-04-23T15:19:19.420Z,95.58
2023-04-23T15:21:47.767Z,94.24
2023-04-23T15:24:16.948Z,94.79
2023-04-23T15:26:46.848Z,95.20
2023-04-23T15:29:15.479Z,95.16
2023-04-23T15:31:44.035Z,95.90
2023-04-23T15:34:12.502Z,95.97
2023-04-23T15:36:42.287Z,96.90
2023-04-23T15:39:10.906Z,96.65
2023-04-23T15:41:41.323Z,96.20
2023-04-23T15:44:12.546Z,96.41
2023-04-23T15:46:41.230Z,95.83
2023-04-23T15:49:09.602Z,96.10
2023-04-23T15:51:38.428Z,95.55
2023-04-23T15:54:09.084Z,95.21
2023-04-23T15:56:37.835Z,94.00
2023-04-23T15:59:07.674Z,93.81
2023-04-23T16:01:37.145Z,93.80
2023-04-23T16:04:11.121Z,93.05
2023-04-23T16:06:40.356Z,93.67
2023-04-23T16:09:12.053Z,93.46
2023-04-23T16:11:41.153Z,93.41
2023-04-23T16:14:10.120Z,94.61
2023-04-23T16:16:39.298Z,95.07
2023-04-23T16:19:07.806Z,95.59
2023-04-23T16:21:36.175Z,95.72
2023-04-23T16:24:04.854Z,96.64
2023-04-23T16:26:34.795Z,96.28
2023-04-23T16:29:16.408Z,97.84
2023-04-23T16:31:45.706Z,98.19
2023-04-23T16:34:14.045Z,100.00
2023-04-23T16:36:42.575Z,100.00
2023-04-23T16:39:11.447Z,100.00
2023-04-23T16:41:41.494Z,100.00
2023-04-23T16:44:10.112Z,100.00
2023-04-23T16:46:38.775Z,100.00
2023-04-23T16:49:07.137Z,100.00
2023-04-23T16:51:35.538Z,100.00
2023-04-23T16:54:03.949Z,100.00
2023-04-23T16:56:32.937Z,100.00
2023-04-23T16:59:03.187Z,100.00
2023-04-23T17:01:31.584Z,100.00
2023-04-23T17:04:00.130Z,100.00
2023-04-23T17:06:30.852Z,100.00
2023-04-23T17:09:01.415Z,100.00
2023-04-23T17:11:31.456Z,100.00
2023-04-23T17:14:01.899Z,100.00
2023-04-23T17:16:31.025Z,100.00
2023-04-23T17:18:59.449Z,100.00
2023-04-23T17:21:28.543Z,100.00
2023-04-23T17:23:57.189Z,100.00
2023-04-23T17:26:25.616Z,100.00
2023-04-23T17:28:53.955Z,100.00
2023-04-23T17:31:23.813Z,100.00
2023-04-23T17:33:53.644Z,100.00
2023-04-23T17:36:22.028Z,100.00
2023-04-23T17:38:50.437Z,100.00
2023-04-23T17:41:19.166Z,100.00
2023-04-23T17:43:49.229Z,100.00
2023-04-23T17:46:17.981Z,100.00
2023-04-23T17:48:48.251Z,100.00
2023-04-23T17:51:17.155Z,100.00
2023-04-23T17:53:49.031Z,100.00
2023-04-23T17:56:17.757Z,100.00
2023-04-23T17:58:46.567Z,100.00
2023-04-23T18:01:17.615Z,100.00
2023-04-23T18:03:48.062Z,100.00
2023-04-23T18:06:16.822Z,100.00
2023-04-23T18:08:45.300Z,100.00
2023-04-23T18:11:14.882Z,100.00
2023-04-23T18:13:44.321Z,100.00
2023-04-23T18:16:13.008Z,100.00
2023-04-23T18:18:41.474Z,100.00
2023-04-23T18:21:13.393Z,100.00
2023-04-23T18:23:41.858Z,100.00
2023-04-23T18:26:10.272Z,100.00
2023-04-23T18:28:38.823Z,100.00
2023-04-23T18:31:07.346Z,100.00
2023-04-23T18:33:44.040Z,100.00
2023-04-23T18:36:25.775Z,100.00
2023-04-23T18:38:54.837Z,100.00
2023-04-23T18:41:23.604Z,100.00
2023-04-23T18:43:52.045Z,100.00
2023-04-23T18:46:23.717Z,100.00
2023-04-23T18:49:00.423Z,100.00
2023-04-23T18:51:39.731Z,100.00
2023-04-23T18:54:08.236Z,100.00
2023-04-23T18:56:36.778Z,100.00
2023-04-23T18:59:05.123Z,100.00
2023-04-23T19:01:33.558Z,100.00
2023-04-23T19:04:02.172Z,100.00
2023-04-23T19:06:32.374Z,99.91
2023-04-23T19:09:01.348Z,100.00
2023-04-23T19:11:34.132Z,100.00
2023-04-23T19:14:02.867Z,99.67
2023-04-23T19:16:31.317Z,99.83
2023-04-23T19:19:00.022Z,99.58
2023-04-23T19:21:28.841Z,99.55
2023-04-23T19:23:58.575Z,99.61
2023-04-23T19:26:27.058Z,99.20
2023-04-23T19:28:55.978Z,99.43
2023-04-23T19:31:24.460Z,98.97
2023-04-23T19:33:52.890Z,100.00
2023-04-23T19:36:21.249Z,100.00
2023-04-23T19:38:49.866Z,100.00
2023-04-23T19:41:19.674Z,100.00
2023-04-23T19:43:48.150Z,100.00
2023-04-23T19:46:16.642Z,100.00
2023-04-23T19:48:45.009Z,100.00
2023-04-23T19:51:13.483Z,100.00
2023-04-23T19:53:41.788Z,100.00
2023-04-23T19:56:13.186Z,100.00
2023-04-23T19:58:42.933Z,100.00
2023-04-23T20:01:13.144Z,100.00
2023-04-23T20:03:43.047Z,100.00
2023-04-23T20:06:11.605Z,100.00
2023-04-23T20:09:02.536Z,100.00
2023-04-23T20:11:31.109Z,100.00
2023-04-23T20:14:01.157Z,100.00
2023-04-23T20:16:29.715Z,100.00
2023-04-23T20:18:58.191Z,100.00
2023-04-23T20:21:26.893Z,100.00
2023-04-23T20:23:55.279Z,100.00
2023-04-23T20:26:23.764Z,100.00
2023-04-23T20:28:52.117Z,100.00
2023-04-23T20:31:22.408Z,100.00
2023-04-23T20:33:50.769Z,100.00
2023-04-23T20:36:20.054Z,100.00
2023-04-23T20:38:48.582Z,100.00
2023-04-23T20:41:17.218Z,100.00
2023-04-23T20:43:45.729Z,100.00
2023-04-23T20:46:14.162Z,100.00
2023-04-23T20:48:44.012Z,100.00
2023-04-23T20:51:12.508Z,100.00
2023-04-23T20:53:40.873Z,100.00
2023-04-23T20:56:09.205Z,100.00
2023-04-23T20:58:37.932Z,100.00
2023-04-23T21:01:07.608Z,99.57
2023-04-23T21:03:37.087Z,99.46
2023-04-23T21:06:09.721Z,99.06
2023-04-23T21:08:38.932Z,98.66
2023-04-23T21:11:11.060Z,98.42
2023-04-23T21:13:39.648Z,98.21
2023-04-23T21:16:08.335Z,98.19
2023-04-23T21:18:40.038Z,98.32
2023-04-23T21:21:09.887Z,98.40
2023-04-23T21:23:38.236Z,98.52
2023-04-23T21:26:07.557Z,98.71
2023-04-23T21:28:36.200Z,100.00
2023-04-23T21:31:12.302Z,100.00
2023-04-23T21:33:40.721Z,100.00
2023-04-23T21:36:10.739Z,100.00
2023-04-23T21:38:39.072Z,100.00
2023-04-23T21:41:07.817Z,100.00
2023-04-23T21:43:36.432Z,100.00
2023-04-23T21:46:04.835Z,100.00
2023-04-23T21:48:33.472Z,100.00
2023-04-23T21:51:02.273Z,100.00
2023-04-23T21:53:31.955Z,100.00
2023-04-23T21:56:00.489Z,100.00
2023-04-23T21:58:31.272Z,100.00
2023-04-23T22:00:59.658Z,100.00
2023-04-23T22:03:38.735Z,100.00
2023-04-23T22:06:09.523Z,100.00
2023-04-23T22:08:40.267Z,100.00
2023-04-23T22:11:09.251Z,100.00
2023-04-23T22:13:38.161Z,100.00
2023-04-23T22:16:20.345Z,100.00
2023-04-23T22:18:53.638Z,100.00
2023-04-23T22:21:22.016Z,100.00
2023-04-23T22:23:51.799Z,100.00
2023-04-23T22:26:20.162Z,100.00
2023-04-23T22:28:48.729Z,100.00
2023-04-23T22:31:17.440Z,100.00
2023-04-23T22:33:45.868Z,100.00
2023-04-23T22:36:14.260Z,100.00
2023-04-23T22:38:42.631Z,100.00
2023-04-23T22:41:12.405Z,100.00
2023-04-23T22:43:40.851Z,100.00
2023-04-23T22:46:09.408Z,100.00
2023-04-23T22:48:44.980Z,100.00
2023-04-23T22:51:13.485Z,100.00
2023-04-23T22:53:41.939Z,100.00
2023-04-23T22:56:11.691Z,100.00
2023-04-23T22:58:40.336Z,100.00
2023-04-23T23:01:08.720Z,100.00
2023-04-23T23:03:37.090Z,100.00
2023-04-23T23:06:06.229Z,100.00
2023-04-23T23:08:34.580Z,100.00
2023-04-23T23:11:02.920Z,100.00
2023-04-23T23:13:32.602Z,100.00
2023-04-23T23:16:04.702Z,100.00
2023-04-23T23:18:33.317Z,100.00
2023-04-23T23:21:01.595Z,100.00
2023-04-23T23:23:29.907Z,100.00
2023-04-23T23:26:00.086Z,100.00
2023-04-23T23:28:28.789Z,100.00
2023-04-23T23:30:58.615Z,100.00
2023-04-23T23:33:27.292Z,100.00
2023-04-23T23:35:56.246Z,100.00
2023-04-23T23:38:24.797Z,100.00
2023-04-23T23:40:53.094Z,100.00
2023-04-23T23:43:21.516Z,100.00
2023-04-23T23:45:49.983Z,100.00
2023-04-23T23:48:19.831Z,100.00
2023-04-23T23:50:48.238Z,100.00
2023-04-23T23:53:16.596Z,100.00
2023-04-23T23:55:44.927Z,100.00
2023-04-23T23:58:13.298Z,100.00
